Time;durP1;ratioP1;P1;durP2;ratioP2;P2;SDS_P1;SDS_P2;PMS_P1;PMS_P2;Temp;Humidity;BMP_temperature;BMP_pressure;BME280_temperature;BME280_humidity;BME280_pressure;Samples;Min_cycle;Max_cycle;Signal;HPM_P1;HPM_P2
2023/12/06 00:00:24;;;;;;;41.40;36.60;;;1.00;99.90;;;;;;5007564;28;20417;-34
2023/12/06 00:02:50;;;;;;;41.45;31.50;;;1.00;99.90;;;;;;5006029;28;20050;-34
2023/12/06 00:05:16;;;;;;;37.50;31.48;;;1.00;99.90;;;;;;5006737;28;20054;-34
2023/12/06 00:07:42;;;;;;;41.95;35.85;;;1.00;99.90;;;;;;5007223;28;20048;-33
2023/12/06 00:10:08;;;;;;;40.67;32.78;;;1.00;99.90;;;;;;5002301;28;20060;-34
2023/12/06 00:12:33;;;;;;;46.67;36.55;;;1.00;99.90;;;;;;5004002;28;20050;-34
2023/12/06 00:14:59;;;;;;;47.90;38.42;;;1.10;99.90;;;;;;5019223;28;20056;-34
2023/12/06 00:17:25;;;;;;;48.28;38.50;;;1.10;99.90;;;;;;5008095;28;20053;-34
2023/12/06 00:19:50;;;;;;;43.97;35.15;;;1.10;99.90;;;;;;5004632;28;20054;-35
2023/12/06 00:22:16;;;;;;;46.85;34.22;;;1.00;99.90;;;;;;5008143;28;20124;-36
2023/12/06 00:24:42;;;;;;;49.00;38.67;;;1.10;99.90;;;;;;5005384;28;20046;-34
2023/12/06 00:27:07;;;;;;;43.55;37.00;;;1.10;99.90;;;;;;5005446;28;20101;-34
2023/12/06 00:29:33;;;;;;;43.20;32.97;;;1.10;99.90;;;;;;5005309;28;20100;-34
2023/12/06 00:31:59;;;;;;;47.45;32.88;;;1.10;99.90;;;;;;5000554;28;20404;-34
2023/12/06 00:34:24;;;;;;;47.00;36.30;;;1.10;99.90;;;;;;5000291;28;20085;-34
2023/12/06 00:36:50;;;;;;;51.55;38.72;;;1.10;99.90;;;;;;5006141;28;20393;-42
2023/12/06 00:39:16;;;;;;;44.47;31.60;;;1.10;99.90;;;;;;5004332;28;20054;-34
2023/12/06 00:41:42;;;;;;;47.90;38.20;;;1.10;99.90;;;;;;5003968;28;20104;-34
2023/12/06 00:44:07;;;;;;;44.35;32.80;;;1.10;99.90;;;;;;4999731;28;20042;-34
2023/12/06 00:46:34;;;;;;;46.55;37.05;;;1.10;99.90;;;;;;5002205;28;20054;-34
2023/12/06 00:49:00;;;;;;;45.90;33.50;;;1.10;99.90;;;;;;5002221;28;20080;-34
2023/12/06 00:51:27;;;;;;;46.70;31.80;;;1.10;99.90;;;;;;5004153;28;20435;-35
2023/12/06 00:53:53;;;;;;;44.10;30.23;;;1.10;99.90;;;;;;5001032;28;20639;-34
2023/12/06 00:56:18;;;;;;;44.70;29.88;;;1.00;99.90;;;;;;5000575;28;20148;-35
2023/12/06 00:58:44;;;;;;;43.45;29.15;;;1.10;99.90;;;;;;5004313;28;20050;-34
2023/12/06 01:01:13;;;;;;;49.10;35.58;;;1.10;99.90;;;;;;5001932;28;20096;-34
2023/12/06 01:03:41;;;;;;;45.95;31.80;;;1.10;99.90;;;;;;5000953;28;20045;-34
2023/12/06 01:06:08;;;;;;;47.50;31.77;;;1.00;99.90;;;;;;5002132;28;20180;-34
2023/12/06 01:08:34;;;;;;;45.80;29.95;;;1.00;99.90;;;;;;5005241;28;20050;-34
2023/12/06 01:11:00;;;;;;;53.08;36.95;;;1.00;99.90;;;;;;5004081;28;20103;-35
2023/12/06 01:13:25;;;;;;;49.83;36.55;;;1.00;99.90;;;;;;5003824;28;20046;-34
2023/12/06 01:15:51;;;;;;;48.88;36.05;;;1.00;99.90;;;;;;4999796;28;20088;-49
2023/12/06 01:18:17;;;;;;;42.90;29.52;;;1.00;99.90;;;;;;5004111;28;20042;-34
2023/12/06 01:20:42;;;;;;;49.92;35.65;;;1.00;99.90;;;;;;5004283;28;20077;-34
2023/12/06 01:23:08;;;;;;;46.90;33.45;;;1.00;99.90;;;;;;5003054;28;20050;-35
2023/12/06 01:25:34;;;;;;;44.08;33.40;;;1.00;99.90;;;;;;5007579;28;20049;-34
2023/12/06 01:28:00;;;;;;;44.33;33.78;;;1.00;99.90;;;;;;5001382;28;20049;-35
2023/12/06 01:30:26;;;;;;;44.15;28.85;;;1.00;99.90;;;;;;5004869;28;20046;-34
2023/12/06 01:32:51;;;;;;;50.92;35.67;;;1.00;99.90;;;;;;5003386;28;20042;-48
2023/12/06 01:35:18;;;;;;;46.53;28.50;;;1.00;99.90;;;;;;5003130;28;20046;-39
2023/12/06 01:37:44;;;;;;;42.95;25.55;;;1.00;99.90;;;;;;5016102;28;20514;-34
2023/12/06 01:40:10;;;;;;;49.00;29.02;;;1.00;99.90;;;;;;5003764;28;20054;-35
2023/12/06 01:42:36;;;;;;;51.33;28.20;;;1.10;99.90;;;;;;5002894;28;20057;-34
2023/12/06 01:45:02;;;;;;;51.22;33.45;;;1.10;99.90;;;;;;5002362;28;20046;-34
2023/12/06 01:47:29;;;;;;;46.63;31.42;;;1.00;99.90;;;;;;5002172;28;20137;-34
2023/12/06 01:49:59;;;;;;;42.78;26.38;;;1.10;99.90;;;;;;5003082;28;20062;-34
2023/12/06 01:52:25;;;;;;;47.88;32.63;;;1.10;99.90;;;;;;5002906;28;20103;-40
2023/12/06 01:54:51;;;;;;;45.92;32.28;;;1.10;99.90;;;;;;5003801;28;20054;-34
2023/12/06 01:57:17;;;;;;;42.92;30.85;;;1.10;99.90;;;;;;5004146;28;20080;-35
2023/12/06 01:59:44;;;;;;;46.63;32.15;;;1.10;99.90;;;;;;5007848;28;20073;-35
2023/12/06 02:02:11;;;;;;;44.20;29.60;;;1.10;99.90;;;;;;5006140;28;20042;-34
2023/12/06 02:04:39;;;;;;;44.33;31.50;;;1.10;99.90;;;;;;5004078;28;20104;-35
2023/12/06 02:07:04;;;;;;;42.40;26.63;;;1.10;99.90;;;;;;5005008;28;20046;-35
2023/12/06 02:09:30;;;;;;;43.42;29.20;;;1.10;99.90;;;;;;5006250;28;20369;-35
2023/12/06 02:11:56;;;;;;;39.00;23.75;;;1.10;99.90;;;;;;5005214;28;20050;-35
2023/12/06 02:14:21;;;;;;;41.95;28.13;;;1.20;99.90;;;;;;5008434;28;20496;-35
2023/12/06 02:16:47;;;;;;;46.08;29.40;;;1.20;99.90;;;;;;5004828;28;20061;-35
2023/12/06 02:19:22;;;;;;;38.97;25.13;;;1.20;99.90;;;;;;5002197;28;20135;-35
2023/12/06 02:21:49;;;;;;;36.88;22.63;;;1.20;99.90;;;;;;5004214;28;20124;-36
2023/12/06 02:24:17;;;;;;;37.65;23.42;;;1.20;99.90;;;;;;5005484;28;20054;-35
2023/12/06 02:26:42;;;;;;;41.10;30.77;;;1.20;99.90;;;;;;5005396;28;20064;-34
2023/12/06 02:29:08;;;;;;;38.55;27.98;;;1.20;99.90;;;;;;5006660;28;20053;-35
2023/12/06 02:31:33;;;;;;;36.72;22.00;;;1.10;99.90;;;;;;5009382;28;20041;-38
2023/12/06 02:34:06;;;;;;;40.47;27.13;;;1.10;99.90;;;;;;5003842;28;20141;-34
2023/12/06 02:36:33;;;;;;;45.10;35.15;;;1.10;99.90;;;;;;5006685;28;20053;-35
2023/12/06 02:38:59;;;;;;;36.08;23.23;;;1.10;99.90;;;;;;5008060;28;20488;-34
2023/12/06 02:41:27;;;;;;;35.83;23.17;;;1.10;99.90;;;;;;5005788;28;20141;-35
2023/12/06 02:43:52;;;;;;;43.25;30.02;;;1.10;99.90;;;;;;5006750;28;20511;-35
2023/12/06 02:46:18;;;;;;;36.95;29.58;;;1.10;99.90;;;;;;5007277;28;20056;-35
2023/12/06 02:48:44;;;;;;;35.97;22.65;;;1.10;99.90;;;;;;5007374;28;20096;-35
2023/12/06 02:51:09;;;;;;;39.95;31.75;;;1.10;99.90;;;;;;5005167;28;20557;-35
2023/12/06 02:53:35;;;;;;;41.08;29.75;;;1.10;99.90;;;;;;5007139;28;20645;-35
2023/12/06 02:56:01;;;;;;;37.75;29.20;;;1.10;99.90;;;;;;5006092;28;20050;-34
2023/12/06 02:58:26;;;;;;;35.42;29.92;;;1.20;99.90;;;;;;5005702;28;20042;-35
2023/12/06 03:00:52;;;;;;;39.72;30.02;;;1.20;99.90;;;;;;5007623;28;20498;-34
2023/12/06 03:03:18;;;;;;;37.60;23.40;;;1.20;99.90;;;;;;5007238;28;20120;-34
2023/12/06 03:05:43;;;;;;;36.13;21.98;;;1.20;99.90;;;;;;5006576;28;20528;-35
2023/12/06 03:08:14;;;;;;;38.85;27.40;;;1.30;99.90;;;;;;5005313;28;20534;-35
2023/12/06 03:10:40;;;;;;;36.03;27.77;;;1.30;99.90;;;;;;5006200;28;20133;-35
2023/12/06 03:13:06;;;;;;;33.17;26.83;;;1.30;99.90;;;;;;5004911;28;20431;-35
2023/12/06 03:15:31;;;;;;;37.03;28.60;;;1.30;99.90;;;;;;5005942;28;20050;-35
2023/12/06 03:17:57;;;;;;;32.45;20.83;;;1.30;99.90;;;;;;5006555;28;20058;-34
2023/12/06 03:20:23;;;;;;;32.92;21.23;;;1.40;99.90;;;;;;5007336;28;20337;-34
2023/12/06 03:22:48;;;;;;;34.92;25.15;;;1.40;99.90;;;;;;5007277;28;20046;-35
2023/12/06 03:25:14;;;;;;;33.17;24.42;;;1.40;99.90;;;;;;5007109;28;20080;-34
2023/12/06 03:27:42;;;;;;;35.40;22.70;;;1.40;99.90;;;;;;5007773;28;20518;-35
2023/12/06 03:30:08;;;;;;;33.47;23.15;;;1.50;99.90;;;;;;5002266;28;20480;-42
2023/12/06 03:32:33;;;;;;;34.30;23.60;;;1.50;99.90;;;;;;5006032;28;20141;-35
2023/12/06 03:34:59;;;;;;;35.53;22.15;;;1.50;99.90;;;;;;5007485;28;20533;-40
2023/12/06 03:37:25;;;;;;;35.75;23.17;;;1.50;99.90;;;;;;5003810;28;29317;-35
2023/12/06 03:39:50;;;;;;;33.83;22.90;;;1.50;99.90;;;;;;5001871;28;20061;-35
2023/12/06 03:42:16;;;;;;;33.88;22.23;;;1.50;99.90;;;;;;5002780;28;20077;-35
2023/12/06 03:44:42;;;;;;;32.20;21.02;;;1.50;99.90;;;;;;5007053;28;20408;-35
2023/12/06 03:47:07;;;;;;;32.42;19.42;;;1.60;99.90;;;;;;5007174;28;20492;-39
2023/12/06 03:49:34;;;;;;;34.67;21.00;;;1.60;99.90;;;;;;5004450;28;20107;-35
2023/12/06 03:51:59;;;;;;;31.50;19.83;;;1.60;99.90;;;;;;5004856;28;20085;-35
2023/12/06 03:54:25;;;;;;;29.25;19.02;;;1.60;99.90;;;;;;5005121;28;20042;-34
2023/12/06 03:56:50;;;;;;;32.35;20.85;;;1.60;99.90;;;;;;5002778;28;20084;-35
2023/12/06 03:59:16;;;;;;;34.13;19.63;;;1.60;99.90;;;;;;5008299;28;20077;-35
2023/12/06 04:01:43;;;;;;;29.50;18.80;;;1.60;99.90;;;;;;5006611;28;20046;-35
2023/12/06 04:04:09;;;;;;;27.17;18.95;;;1.60;99.90;;;;;;5002166;28;20136;-35
2023/12/06 04:06:35;;;;;;;29.38;20.30;;;1.60;99.90;;;;;;5004687;28;20149;-35
2023/12/06 04:09:00;;;;;;;31.02;18.75;;;1.60;99.90;;;;;;5008098;28;20065;-35
2023/12/06 04:11:27;;;;;;;28.98;17.63;;;1.60;99.90;;;;;;5004470;28;20544;-35
2023/12/06 04:13:53;;;;;;;30.17;18.50;;;1.70;99.90;;;;;;5005831;28;20073;-35
2023/12/06 04:16:18;;;;;;;29.95;18.92;;;1.60;99.90;;;;;;5005354;28;20547;-35
2023/12/06 04:18:44;;;;;;;31.17;19.08;;;1.70;99.90;;;;;;5006016;28;20100;-35
2023/12/06 04:21:10;;;;;;;29.13;17.77;;;1.70;99.90;;;;;;5003661;28;20053;-35
2023/12/06 04:23:35;;;;;;;29.65;18.92;;;1.70;99.90;;;;;;5002462;28;20572;-42
2023/12/06 04:26:01;;;;;;;28.02;17.90;;;1.70;99.90;;;;;;5007916;28;20065;-35
2023/12/06 04:28:27;;;;;;;31.38;18.98;;;1.70;99.90;;;;;;5001567;28;20058;-35
2023/12/06 04:30:52;;;;;;;32.67;20.08;;;1.70;99.90;;;;;;5005799;28;20049;-40
2023/12/06 04:33:18;;;;;;;29.63;18.73;;;1.70;99.90;;;;;;5005013;28;20050;-35
2023/12/06 04:35:44;;;;;;;30.73;19.02;;;1.70;99.90;;;;;;5007193;28;20124;-35
2023/12/06 04:38:09;;;;;;;28.77;17.45;;;1.70;99.90;;;;;;5017275;28;20057;-35
2023/12/06 04:40:35;;;;;;;28.00;17.50;;;1.70;99.90;;;;;;5001985;28;20423;-35
2023/12/06 04:43:01;;;;;;;29.63;17.00;;;1.70;99.90;;;;;;5004561;28;20476;-35
2023/12/06 04:45:27;;;;;;;30.08;17.60;;;1.70;99.90;;;;;;5002249;28;20046;-35
2023/12/06 04:47:53;;;;;;;24.77;16.17;;;1.80;99.90;;;;;;5001331;28;20049;-35
2023/12/06 04:50:18;;;;;;;28.88;17.75;;;1.80;99.90;;;;;;5005877;28;20514;-34
2023/12/06 04:52:44;;;;;;;25.20;15.13;;;1.80;99.90;;;;;;5003467;28;20137;-35
2023/12/06 04:55:10;;;;;;;26.40;16.02;;;1.80;99.90;;;;;;5007728;28;20060;-35
2023/12/06 04:57:36;;;;;;;27.73;17.20;;;1.80;99.90;;;;;;5001682;28;20140;-35
2023/12/06 05:00:04;;;;;;;23.38;15.25;;;1.80;99.90;;;;;;5004275;28;20054;-35
2023/12/06 05:02:30;;;;;;;26.55;16.38;;;1.80;99.90;;;;;;5005143;28;20115;-35
2023/12/06 05:04:56;;;;;;;27.25;16.55;;;1.80;99.90;;;;;;5000538;28;20504;-35
2023/12/06 05:07:21;;;;;;;25.63;15.68;;;1.80;99.90;;;;;;5004933;28;20057;-35
2023/12/06 05:09:47;;;;;;;31.15;18.27;;;1.80;99.90;;;;;;5003999;28;20053;-35
2023/12/06 05:12:13;;;;;;;34.50;18.30;;;1.80;99.90;;;;;;5006530;28;20100;-35
2023/12/06 05:14:38;;;;;;;29.00;17.30;;;1.80;99.90;;;;;;5005722;28;20054;-35
2023/12/06 05:17:04;;;;;;;26.77;16.67;;;1.80;99.90;;;;;;5006663;28;20470;-36
2023/12/06 05:19:29;;;;;;;27.23;16.50;;;1.90;99.90;;;;;;5000136;28;20050;-34
2023/12/06 05:21:56;;;;;;;34.00;18.40;;;1.90;99.90;;;;;;5001729;28;20140;-35
2023/12/06 05:24:21;;;;;;;30.92;17.02;;;1.90;99.90;;;;;;5004763;28;20050;-35
2023/12/06 05:26:47;;;;;;;32.38;17.95;;;1.90;99.90;;;;;;5004478;28;20054;-35
2023/12/06 05:29:13;;;;;;;30.92;17.73;;;1.90;99.90;;;;;;5003048;28;20054;-35
2023/12/06 05:31:38;;;;;;;30.65;17.52;;;1.90;99.90;;;;;;5004238;28;20053;-34
2023/12/06 05:34:04;;;;;;;30.42;18.25;;;1.90;99.90;;;;;;5006566;28;20140;-34
2023/12/06 05:36:30;;;;;;;26.00;15.65;;;2.00;99.90;;;;;;5004912;28;20050;-35
2023/12/06 05:38:55;;;;;;;31.48;17.80;;;2.00;99.90;;;;;;5008776;28;20100;-35
2023/12/06 05:41:21;;;;;;;30.48;17.55;;;2.00;99.90;;;;;;5007305;28;20123;-34
2023/12/06 05:43:47;;;;;;;31.25;18.17;;;2.00;99.90;;;;;;5008621;28;20393;-34
2023/12/06 05:46:12;;;;;;;28.95;17.58;;;2.00;99.90;;;;;;5007566;28;20553;-35
2023/12/06 05:48:38;;;;;;;30.20;17.98;;;2.00;99.90;;;;;;5008653;28;20050;-35
2023/12/06 05:51:04;;;;;;;29.45;17.30;;;2.00;99.90;;;;;;5009751;28;20054;-35
2023/12/06 05:53:30;;;;;;;32.92;17.60;;;2.10;99.90;;;;;;5005551;28;20060;-36
2023/12/06 05:55:56;;;;;;;27.98;16.23;;;2.10;99.90;;;;;;5008255;28;20048;-34
2023/12/06 05:58:22;;;;;;;28.92;16.42;;;2.10;99.90;;;;;;5005907;28;20045;-35
2023/12/06 06:00:47;;;;;;;27.92;16.83;;;2.20;99.90;;;;;;5009561;28;20060;-35
2023/12/06 06:03:13;;;;;;;24.77;14.90;;;2.20;99.90;;;;;;5009837;28;20046;-34
2023/12/06 06:05:39;;;;;;;25.77;16.50;;;2.20;99.90;;;;;;5005813;28;20058;-35
2023/12/06 06:08:05;;;;;;;25.65;16.15;;;2.20;99.90;;;;;;5006568;28;20120;-34
2023/12/06 06:10:30;;;;;;;22.10;15.20;;;2.30;99.90;;;;;;5008886;28;20133;-35
2023/12/06 06:12:56;;;;;;;22.52;16.17;;;2.30;99.90;;;;;;5007115;28;20061;-35
2023/12/06 06:15:22;;;;;;;26.70;17.08;;;2.30;99.90;;;;;;5010138;28;20089;-35
2023/12/06 06:17:47;;;;;;;27.40;16.65;;;2.30;99.90;;;;;;5006495;28;20136;-34
2023/12/06 06:20:13;;;;;;;25.17;18.20;;;2.40;99.90;;;;;;5006574;28;20058;-34
2023/12/06 06:22:39;;;;;;;29.67;18.17;;;2.40;99.90;;;;;;5004826;28;20046;-35
2023/12/06 06:25:05;;;;;;;28.38;17.50;;;2.40;99.90;;;;;;5006862;28;20475;-35
2023/12/06 06:27:30;;;;;;;27.55;16.27;;;2.40;99.90;;;;;;5007667;28;20054;-35
2023/12/06 06:29:56;;;;;;;28.00;17.52;;;2.40;99.90;;;;;;5007167;28;20062;-34
2023/12/06 06:32:23;;;;;;;26.17;17.42;;;2.40;99.90;;;;;;5002854;28;20046;-34
2023/12/06 06:34:49;;;;;;;26.70;16.70;;;2.40;99.90;;;;;;5007384;28;21198;-40
2023/12/06 06:37:15;;;;;;;23.85;15.82;;;2.40;99.90;;;;;;5007208;28;20054;-34
2023/12/06 06:39:40;;;;;;;25.70;17.33;;;2.40;99.90;;;;;;5005278;28;20101;-34
2023/12/06 06:42:06;;;;;;;25.60;18.40;;;2.40;99.90;;;;;;5005369;28;20050;-35
2023/12/06 06:44:32;;;;;;;24.58;16.80;;;2.40;99.90;;;;;;5003706;28;20053;-35
2023/12/06 06:46:58;;;;;;;23.80;16.50;;;2.40;99.90;;;;;;5004963;28;20053;-35
2023/12/06 06:49:24;;;;;;;24.80;16.70;;;2.40;99.90;;;;;;5006029;28;20116;-35
2023/12/06 06:51:50;;;;;;;27.42;17.73;;;2.40;99.90;;;;;;5007518;28;20072;-34
2023/12/06 06:54:15;;;;;;;24.17;17.02;;;2.40;99.90;;;;;;5004170;28;20504;-35
2023/12/06 06:56:41;;;;;;;23.45;16.23;;;2.50;99.90;;;;;;5004235;28;20563;-35
2023/12/06 06:59:07;;;;;;;24.42;16.08;;;2.40;99.90;;;;;;5003737;28;20548;-35
2023/12/06 07:01:32;;;;;;;25.70;16.65;;;2.50;99.90;;;;;;5001361;28;20065;-35
2023/12/06 07:03:58;;;;;;;25.52;17.05;;;2.40;99.90;;;;;;5005230;28;20038;-35
2023/12/06 07:06:24;;;;;;;24.30;16.73;;;2.50;99.90;;;;;;5004866;28;20058;-35
2023/12/06 07:08:49;;;;;;;28.30;17.77;;;2.50;99.90;;;;;;5003333;28;20108;-35
2023/12/06 07:11:16;;;;;;;27.98;17.77;;;2.50;99.90;;;;;;4999201;28;20053;-35
2023/12/06 07:13:42;;;;;;;25.50;16.55;;;2.50;99.90;;;;;;5006447;28;20065;-35
2023/12/06 07:16:10;;;;;;;24.40;16.48;;;2.50;99.90;;;;;;5005139;28;20058;-35
2023/12/06 07:18:35;;;;;;;23.27;16.92;;;2.50;99.90;;;;;;5003751;28;20041;-35
2023/12/06 07:21:02;;;;;;;24.17;16.15;;;2.50;99.90;;;;;;5005614;28;20041;-35
2023/12/06 07:23:27;;;;;;;28.35;17.58;;;2.50;99.90;;;;;;5004523;28;20477;-46
2023/12/06 07:25:53;;;;;;;22.67;15.63;;;2.50;99.90;;;;;;5007830;28;20416;-34
2023/12/06 07:28:19;;;;;;;22.17;14.70;;;2.50;99.90;;;;;;5008460;28;20412;-35
2023/12/06 07:30:45;;;;;;;25.02;16.67;;;2.50;99.90;;;;;;5001503;28;20088;-35
2023/12/06 07:33:11;;;;;;;22.88;16.80;;;2.50;99.90;;;;;;5002494;28;20559;-35
2023/12/06 07:35:37;;;;;;;23.10;16.67;;;2.50;99.90;;;;;;5005353;28;20132;-35
2023/12/06 07:38:04;;;;;;;23.75;15.93;;;2.40;99.90;;;;;;5010955;28;20058;-35
2023/12/06 07:40:30;;;;;;;22.10;14.68;;;2.50;99.90;;;;;;5007579;28;20045;-35
2023/12/06 07:42:56;;;;;;;26.30;16.73;;;2.50;99.90;;;;;;5006058;28;20415;-35
2023/12/06 07:45:22;;;;;;;25.88;15.93;;;2.50;99.90;;;;;;5007180;28;20181;-35
2023/12/06 07:47:48;;;;;;;21.05;14.02;;;2.40;99.90;;;;;;5005803;28;20054;-35
2023/12/06 07:50:14;;;;;;;24.63;15.77;;;2.50;99.90;;;;;;5010162;28;20054;-34
2023/12/06 07:52:39;;;;;;;23.40;15.43;;;2.50;99.90;;;;;;5006435;28;20050;-34
2023/12/06 07:55:06;;;;;;;23.58;16.05;;;2.50;99.90;;;;;;5007962;28;20495;-35
2023/12/06 07:57:35;;;;;;;22.63;14.95;;;2.50;99.90;;;;;;5005288;28;20092;-35
2023/12/06 08:00:07;;;;;;;20.65;14.52;;;2.50;99.90;;;;;;5008943;28;20131;-35
2023/12/06 08:02:35;;;;;;;20.55;14.80;;;2.50;99.90;;;;;;5006803;28;20053;-36
2023/12/06 08:05:03;;;;;;;23.30;16.17;;;2.50;99.90;;;;;;5003158;28;20500;-35
2023/12/06 08:07:29;;;;;;;23.05;16.10;;;2.50;99.90;;;;;;5007208;28;20045;-35
2023/12/06 08:09:55;;;;;;;23.30;15.93;;;2.60;99.90;;;;;;5005700;28;20056;-35
2023/12/06 08:12:20;;;;;;;22.73;15.35;;;2.50;99.90;;;;;;5008033;28;20627;-35
2023/12/06 08:14:46;;;;;;;23.98;16.08;;;2.60;99.90;;;;;;5004245;28;20079;-35
2023/12/06 08:17:12;;;;;;;24.70;15.27;;;2.60;99.90;;;;;;5006325;28;20095;-34
2023/12/06 08:19:37;;;;;;;23.85;15.98;;;2.60;99.90;;;;;;5002844;28;20062;-35
2023/12/06 08:22:04;;;;;;;25.52;15.82;;;2.60;99.90;;;;;;5003561;28;20054;-35
2023/12/06 08:24:29;;;;;;;25.75;15.85;;;2.60;99.90;;;;;;5006979;28;20050;-34
2023/12/06 08:26:55;;;;;;;21.67;14.15;;;2.60;99.90;;;;;;5003456;28;20058;-35
2023/12/06 08:29:21;;;;;;;23.63;13.93;;;2.60;99.90;;;;;;5006299;28;20119;-36
2023/12/06 08:31:47;;;;;;;21.25;14.43;;;2.60;99.90;;;;;;5004430;28;20132;-34
2023/12/06 08:34:12;;;;;;;24.77;14.60;;;2.70;99.90;;;;;;5003769;28;20066;-35
2023/12/06 08:36:38;;;;;;;23.90;15.25;;;2.70;99.90;;;;;;5005070;28;20050;-35
2023/12/06 08:39:04;;;;;;;22.60;14.48;;;2.70;99.90;;;;;;5006165;28;20041;-41
2023/12/06 08:41:29;;;;;;;24.63;15.02;;;2.80;99.90;;;;;;5005278;28;20041;-34
2023/12/06 08:43:55;;;;;;;22.10;15.15;;;2.80;99.90;;;;;;5006627;28;20053;-41
2023/12/06 08:46:22;;;;;;;19.63;14.07;;;2.80;99.90;;;;;;5002677;28;20657;-35
2023/12/06 08:48:48;;;;;;;27.70;16.45;;;2.80;99.90;;;;;;5005343;28;20053;-34
2023/12/06 08:51:13;;;;;;;21.95;15.25;;;2.80;99.90;;;;;;5003964;28;20057;-35
2023/12/06 08:53:39;;;;;;;21.35;15.25;;;2.80;99.90;;;;;;5005330;28;20396;-35
2023/12/06 08:56:05;;;;;;;26.80;15.45;;;2.90;99.90;;;;;;5005772;28;20622;-36
2023/12/06 08:58:31;;;;;;;21.33;15.20;;;2.90;99.90;;;;;;5006668;28;20207;-34
2023/12/06 09:00:57;;;;;;;21.77;14.60;;;2.90;99.90;;;;;;5006893;28;20492;-35
2023/12/06 09:03:22;;;;;;;27.38;15.90;;;2.90;99.90;;;;;;5003004;28;20049;-35
2023/12/06 09:05:48;;;;;;;22.23;14.35;;;2.90;99.90;;;;;;5020439;28;20046;-35
2023/12/06 09:08:15;;;;;;;20.77;14.68;;;2.90;99.90;;;;;;5010558;28;20050;-35
2023/12/06 09:10:40;;;;;;;24.75;14.93;;;2.90;99.90;;;;;;5005569;28;20103;-34
2023/12/06 09:13:06;;;;;;;25.77;14.68;;;2.90;99.90;;;;;;5011379;28;20513;-35
2023/12/06 09:15:32;;;;;;;21.73;14.55;;;2.90;99.90;;;;;;5008913;28;20046;-40
2023/12/06 09:17:57;;;;;;;23.02;15.18;;;2.90;99.90;;;;;;5005561;28;20066;-34
2023/12/06 09:20:23;;;;;;;26.38;15.00;;;3.00;99.90;;;;;;5009865;28;20088;-34
2023/12/06 09:22:50;;;;;;;19.13;13.88;;;3.00;99.90;;;;;;5008810;28;20053;-35
2023/12/06 09:25:16;;;;;;;21.58;14.38;;;3.00;99.90;;;;;;5009141;28;20085;-45
2023/12/06 09:27:42;;;;;;;22.88;14.02;;;3.00;99.90;;;;;;5009002;28;20214;-35
2023/12/06 09:30:08;;;;;;;21.83;15.25;;;3.00;99.90;;;;;;5010791;28;20152;-35
2023/12/06 09:32:34;;;;;;;22.73;14.05;;;3.00;99.90;;;;;;5005633;28;20117;-34
2023/12/06 09:35:00;;;;;;;22.08;13.88;;;3.00;99.90;;;;;;5008900;28;20484;-35
2023/12/06 09:37:26;;;;;;;20.77;14.50;;;3.00;99.90;;;;;;5006726;28;20089;-35
2023/12/06 09:39:53;;;;;;;21.23;14.18;;;3.00;99.90;;;;;;5007624;28;20046;-35
2023/12/06 09:42:19;;;;;;;25.92;14.65;;;3.00;99.90;;;;;;5008482;28;20057;-35
2023/12/06 09:44:45;;;;;;;21.58;14.55;;;3.10;99.90;;;;;;5025732;28;20057;-34
2023/12/06 09:47:14;;;;;;;22.08;14.05;;;3.10;99.90;;;;;;5010244;28;20058;-35
2023/12/06 09:49:39;;;;;;;20.20;13.70;;;3.10;99.90;;;;;;5007338;28;20046;-34
2023/12/06 09:52:18;;;;;;;19.30;13.55;;;3.10;99.90;;;;;;5009630;28;20099;-35
2023/12/06 09:54:45;;;;;;;23.60;14.18;;;3.20;99.90;;;;;;5009159;28;20072;-35
2023/12/06 09:57:11;;;;;;;21.42;14.00;;;3.20;99.90;;;;;;5008044;28;20054;-35
2023/12/06 09:59:38;;;;;;;23.73;14.68;;;3.20;99.90;;;;;;5007308;28;20046;-34
2023/12/06 10:02:03;;;;;;;21.58;14.40;;;3.20;99.90;;;;;;5006508;28;20050;-35
2023/12/06 10:04:29;;;;;;;20.35;14.18;;;3.30;99.90;;;;;;5009566;28;20123;-35
2023/12/06 10:06:55;;;;;;;23.05;14.25;;;3.30;99.90;;;;;;5007445;28;20077;-35
2023/12/06 10:09:21;;;;;;;23.98;15.20;;;3.30;99.90;;;;;;5011282;28;20578;-35
2023/12/06 10:11:49;;;;;;;20.45;13.93;;;3.30;99.90;;;;;;5005832;28;20137;-36
2023/12/06 10:14:20;;;;;;;24.55;14.98;;;3.30;99.90;;;;;;5007670;28;20045;-35
2023/12/06 10:16:47;;;;;;;20.73;13.98;;;3.30;99.90;;;;;;5006489;28;21962;-46
2023/12/06 10:19:21;;;;;;;24.42;14.55;;;3.30;99.90;;;;;;5006748;28;20491;-35
2023/12/06 10:21:50;;;;;;;20.83;14.32;;;3.40;99.90;;;;;;5005821;28;20053;-35
2023/12/06 10:24:16;;;;;;;21.42;14.15;;;3.40;99.90;;;;;;5007920;28;20049;-35
2023/12/06 10:26:42;;;;;;;22.38;14.80;;;3.40;99.90;;;;;;5010194;28;20076;-35
2023/12/06 10:29:08;;;;;;;23.00;15.18;;;3.40;99.90;;;;;;5005815;28;20057;-35
2023/12/06 10:31:42;;;;;;;24.55;15.05;;;3.40;99.90;;;;;;5008994;28;20096;-34
2023/12/06 10:34:09;;;;;;;21.45;14.90;;;3.40;99.90;;;;;;5005717;28;20058;-35
2023/12/06 10:36:38;;;;;;;22.13;15.07;;;3.40;99.90;;;;;;5009226;28;20380;-35
2023/12/06 10:39:11;;;;;;;20.08;14.55;;;3.50;99.90;;;;;;5006407;28;20063;-35
2023/12/06 10:41:41;;;;;;;23.40;14.75;;;3.50;99.90;;;;;;5007513;28;20042;-35
2023/12/06 10:44:09;;;;;;;21.65;14.88;;;3.50;99.90;;;;;;5004003;28;20073;-35
2023/12/06 10:46:36;;;;;;;21.98;14.82;;;3.50;99.90;;;;;;5009726;28;20050;-35
2023/12/06 10:49:03;;;;;;;20.45;14.00;;;3.50;99.90;;;;;;5007409;28;20089;-35
2023/12/06 10:51:34;;;;;;;24.13;13.38;;;3.60;99.90;;;;;;5009096;28;20057;-35
2023/12/06 10:54:01;;;;;;;20.80;14.13;;;3.60;99.90;;;;;;5004517;28;20476;-35
2023/12/06 10:56:28;;;;;;;18.00;12.95;;;3.70;99.90;;;;;;5014381;28;20050;-35
2023/12/06 10:58:59;;;;;;;19.52;13.63;;;3.70;99.90;;;;;;5008072;28;20065;-35
2023/12/06 11:01:25;;;;;;;19.48;13.57;;;3.70;99.90;;;;;;5003974;28;20041;-35
2023/12/06 11:03:52;;;;;;;17.35;12.90;;;3.70;99.90;;;;;;5007116;28;20050;-37
2023/12/06 11:06:41;;;;;;;20.52;12.45;;;3.80;99.90;;;;;;5009841;28;20124;-40
2023/12/06 11:09:26;;;;;;;17.45;12.00;;;3.80;99.90;;;;;;4996817;28;22327;-42
2023/12/06 11:12:00;;;;;;;15.02;11.52;;;3.80;99.90;;;;;;5006165;28;20054;-35
2023/12/06 11:15:13;;;;;;;17.58;11.25;;;3.80;99.90;;;;;;5006642;28;20566;-35
2023/12/06 11:17:50;;;;;;;17.92;10.98;;;3.90;99.90;;;;;;4998357;28;20065;-34
2023/12/06 11:20:16;;;;;;;15.88;11.93;;;3.90;99.90;;;;;;5002630;28;20070;-35
2023/12/06 11:22:42;;;;;;;14.75;10.73;;;4.00;99.90;;;;;;5019025;28;20081;-35
2023/12/06 11:25:09;;;;;;;14.73;11.10;;;3.90;99.90;;;;;;5001228;28;20049;-35
2023/12/06 11:27:40;;;;;;;14.93;11.18;;;3.90;99.90;;;;;;5007724;28;20466;-35
2023/12/06 11:30:24;;;;;;;12.82;10.25;;;4.00;99.90;;;;;;5003590;28;20492;-35
2023/12/06 11:32:57;;;;;;;14.52;10.70;;;4.00;99.90;;;;;;5004642;28;20111;-35
2023/12/06 11:35:24;;;;;;;14.50;10.50;;;4.00;99.90;;;;;;5007219;28;20103;-34
2023/12/06 11:37:52;;;;;;;14.55;10.48;;;4.00;99.90;;;;;;5007336;28;20129;-35
2023/12/06 11:40:18;;;;;;;12.10;9.02;;;4.10;99.90;;;;;;5009294;28;20861;-35
2023/12/06 11:43:04;;;;;;;13.98;10.27;;;4.10;99.90;;;;;;5008416;28;20054;-35
2023/12/06 11:45:31;;;;;;;13.40;10.02;;;4.20;99.90;;;;;;4998156;28;20050;-35
2023/12/06 11:47:58;;;;;;;11.70;9.07;;;4.20;99.90;;;;;;5007719;28;20443;-35
2023/12/06 11:50:23;;;;;;;12.63;9.20;;;4.20;99.90;;;;;;5005962;28;20068;-35
2023/12/06 11:52:50;;;;;;;13.38;9.50;;;4.20;99.90;;;;;;5006679;28;20046;-35
2023/12/06 11:55:18;;;;;;;12.32;9.80;;;4.30;99.90;;;;;;5006880;28;20054;-35
2023/12/06 11:58:00;;;;;;;12.05;9.63;;;4.30;99.90;;;;;;5008093;28;20048;-35
2023/12/06 12:00:27;;;;;;;11.53;9.63;;;4.30;99.90;;;;;;5008580;28;20046;-35
2023/12/06 12:02:54;;;;;;;12.15;8.88;;;4.30;99.90;;;;;;5008403;28;20053;-34
2023/12/06 12:05:20;;;;;;;17.85;9.05;;;4.30;99.90;;;;;;5007246;28;20492;-35
2023/12/06 12:07:46;;;;;;;13.57;8.88;;;4.30;99.90;;;;;;5011800;28;20053;-34
2023/12/06 12:10:12;;;;;;;12.35;9.05;;;4.30;99.90;;;;;;5006681;28;20052;-50
2023/12/06 12:12:38;;;;;;;12.80;8.45;;;4.30;99.90;;;;;;5007585;28;20057;-35
2023/12/06 12:15:04;;;;;;;11.30;7.53;;;4.30;99.90;;;;;;5005032;28;20115;-35
2023/12/06 12:17:30;;;;;;;13.60;8.70;;;4.30;99.90;;;;;;5006472;28;20061;-34
2023/12/06 12:19:56;;;;;;;10.02;7.95;;;4.30;99.90;;;;;;5007744;28;20061;-35
2023/12/06 12:22:22;;;;;;;10.43;7.28;;;4.30;99.90;;;;;;5007428;28;20081;-44
2023/12/06 12:24:48;;;;;;;10.00;7.97;;;4.30;99.90;;;;;;5005873;28;20061;-35
2023/12/06 12:27:18;;;;;;;10.25;7.95;;;4.30;99.90;;;;;;5010755;28;20118;-35
2023/12/06 12:29:44;;;;;;;8.85;7.57;;;4.30;99.90;;;;;;5005818;28;20495;-50
2023/12/06 12:32:10;;;;;;;10.13;7.63;;;4.20;99.90;;;;;;5009239;28;20057;-35
2023/12/06 12:34:37;;;;;;;9.43;7.47;;;4.30;99.90;;;;;;5003763;28;20069;-35